首页
METAR-TAF:

METAR-TAF

机场 :

萨斯卡通约翰·乔治·迪芬贝克国际机场

萨斯卡通, 薩斯喀徹溫, 加拿大

纬度: 52-10N, 经度: 106-41W, 海拔: 501米

当前天气观测

该预报发布于36分钟前的12:00 UTC
静风
温度 12°C
湿度 100%
气压 1014 hPa
能見度: 6.4公里
阴天层高于2500英尺

METAR: CYXE 181200Z 00000KT 4SM FU OVC025 12/12 A2994 RMK FU8 SLP143 DENSITY ALT 1700FT

时间: 06:36 (12:36 UTC)

预报

该预报发布于58分钟前的11:38 UTC
预报有效从18日的 12点(UTC)到 19日的 12点(UTC)
风速8节,风向西转西北
能見度: 8.0公里
天空无云
短暂存在
从 18日的 12点(UTC)到 18日的 15点(UTC)
能見度: 4.8公里
层高于1500英尺
几率 30%
从 18日的 12点(UTC)到 18日的 15点(UTC)
从 18日的 1500点(UTC)
风速10节,风向西转西北
能見度: 9.7公里
散云层高于12000英尺
短暂存在
从 18日的 15点(UTC)到 18日的 21点(UTC)
能見度: 4.8公里
成为
从 18日的 18点(UTC)到 18日的 20点(UTC)
风速15节,风向西转西北
从 18日的 2100点(UTC)
风速15节,风向西转西北,有时为25节阵风
能見度: 10公里
散云层高于4000英尺
从 19日的 0300点(UTC)
风速12节,风向北转西北
能見度: 10公里
少量云层高于6000英尺

TAF: CYXE 181138Z 1812/1912 30008KT 5SM FU SKC TEMPO 1812/1815 3SM FU VV015 PROB30 1812/1815 11/2SM FU FM181500 30010KT 6SM FU SCT120 TEMPO 1815/1821 3SM FU BECMG 1818/1820 30015KT FM182100 30015G25KT P6SM SCT040 FM190300 34012KT P6SM FEW060 RMK NXT FCST BY 181800Z

超过4000个机场的气象观测和天气预报(METAR&TAF报告)。

可查询的气象台以黄色和红色小点在地图上表示。

将鼠标移到小点上方,可查看气象台名称。

然后点击查看天气观测和预报。

如需切换地图:点击带黑十字的绿色按钮放大地图;点击带横线的绿色按钮缩小地图;或者点击绿色箭头查看邻近地区的地图。


METAR-TAF: